Time;durP1;ratioP1;P1;durP2;ratioP2;P2;SDS_P1;SDS_P2;PMS_P1;PMS_P2;Temp;Humidity;BMP_temperature;BMP_pressure;BME280_temperature;BME280_humidity;BME280_pressure;Samples;Min_cycle;Max_cycle;Signal;HPM_P1;HPM_P2
2022/06/19 00:00:08;;;;;;;;;21.75;18.00;;;;;27.91;47.61;99810.63;5077023;28;45581;-74
2022/06/19 00:02:35;;;;;;;;;20.25;16.50;;;;;27.70;47.71;99810.41;5077999;27;45700;-73
2022/06/19 00:05:00;;;;;;;;;19.75;16.00;;;;;27.62;48.68;99824.06;5078341;27;45429;-71
2022/06/19 00:07:26;;;;;;;;;19.50;18.00;;;;;27.44;49.30;99816.34;5077539;27;45448;-68
2022/06/19 00:09:52;;;;;;;;;20.00;20.00;;;;;27.32;49.45;99816.03;5076625;27;45475;-69
2022/06/19 00:12:18;;;;;;;;;23.50;20.50;;;;;27.23;49.76;99803.69;5077061;27;45522;-70
2022/06/19 00:14:44;;;;;;;;;21.75;20.00;;;;;27.10;49.84;99796.25;5076979;27;45462;-69
2022/06/19 00:17:09;;;;;;;;;17.75;17.75;;;;;27.00;50.08;99818.13;5077354;28;45300;-68
2022/06/19 00:19:35;;;;;;;;;17.25;15.75;;;;;26.86;50.33;99848.66;5078344;28;45512;-67
2022/06/19 00:22:01;;;;;;;;;18.75;17.50;;;;;26.74;50.78;99867.97;5077333;27;46480;-70
2022/06/19 00:24:29;;;;;;;;;15.25;15.25;;;;;26.57;50.78;99877.25;5077703;28;45375;-69
2022/06/19 00:26:55;;;;;;;;;19.75;19.00;;;;;26.49;51.08;99883.56;5078196;28;45442;-71
2022/06/19 00:29:21;;;;;;;;;18.75;17.00;;;;;26.29;51.53;99885.94;5077731;28;45452;-70
2022/06/19 00:31:47;;;;;;;;;19.75;17.00;;;;;26.02;51.81;99840.50;5075520;28;45793;-68
2022/06/19 00:34:12;;;;;;;;;17.25;15.75;;;;;25.85;52.00;99884.75;5077075;27;45439;-69
2022/06/19 00:36:37;;;;;;;;;14.25;14.25;;;;;25.55;52.38;99889.97;5077044;27;45572;-70
2022/06/19 00:39:03;;;;;;;;;12.00;11.50;;;;;25.34;52.55;99872.53;5076823;28;45310;-67
2022/06/19 00:41:41;;;;;;;;;15.00;7.75;;;;;24.97;51.80;99852.53;5075470;28;48124;-69
2022/06/19 00:44:09;;;;;;;;;11.00;10.25;;;;;24.63;51.93;99857.13;5076923;27;45286;-68
2022/06/19 00:46:59;;;;;;;;;10.75;8.75;;;;;24.40;52.14;99873.13;5077041;27;45284;-68
2022/06/19 00:49:54;;;;;;;;;8.75;8.75;;;;;24.05;51.97;99858.00;5057348;28;45498;-70
2022/06/19 00:52:22;;;;;;;;;9.50;9.00;;;;;23.86;52.42;99864.53;5056171;28;45464;-70
2022/06/19 00:54:58;;;;;;;;;11.50;10.25;;;;;23.59;52.57;99865.66;5056392;28;45385;-70
2022/06/19 00:57:26;;;;;;;;;9.50;8.25;;;;;23.33;52.38;99890.75;5059618;28;45228;-69
2022/06/19 00:59:59;;;;;;;;;10.00;8.25;;;;;22.99;52.81;99907.63;5076234;27;45438;-68
2022/06/19 01:02:25;;;;;;;;;8.00;7.25;;;;;22.77;52.81;99908.00;5074297;28;47292;-71
2022/06/19 01:04:53;;;;;;;;;10.50;9.25;;;;;22.63;53.24;99923.84;5076697;27;45412;-68
2022/06/19 01:07:22;;;;;;;;;14.00;11.25;;;;;22.55;53.13;99903.16;5076816;28;45307;-70
2022/06/19 01:09:48;;;;;;;;;10.75;10.75;;;;;22.46;53.85;99910.31;5077015;27;45553;-70
2022/06/19 01:12:14;;;;;;;;;12.00;10.50;;;;;22.24;53.89;99912.44;5074436;28;48108;-69
2022/06/19 01:14:43;;;;;;;;;15.00;12.00;;;;;22.01;54.16;99915.56;5076694;28;45450;-70
2022/06/19 01:17:10;;;;;;;;;15.50;14.00;;;;;21.75;54.47;99907.47;5076007;27;45510;-72
2022/06/19 01:19:41;;;;;;;;;12.25;10.50;;;;;21.51;55.44;99894.63;5076485;27;45449;-70
2022/06/19 01:22:28;;;;;;;;;16.50;14.00;;;;;21.28;54.78;99911.91;5076011;27;45347;-69
2022/06/19 01:25:13;;;;;;;;;12.25;11.00;;;;;21.07;55.98;99922.81;5075571;27;45512;-67
2022/06/19 01:30:30;;;;;;;;;17.25;14.25;;;;;20.79;56.88;99909.41;5076235;28;45222;-69
2022/06/19 01:32:58;;;;;;;;;13.25;12.25;;;;;20.71;56.16;99895.91;5076251;28;45477;-69
2022/06/19 01:35:28;;;;;;;;;16.50;13.00;;;;;20.68;57.60;99905.06;5076106;27;45332;-68
2022/06/19 01:37:55;;;;;;;;;18.00;14.00;;;;;20.62;57.29;99894.91;5076176;27;45317;-71
2022/06/19 01:40:29;;;;;;;;;15.75;15.25;;;;;20.58;57.27;99910.41;5076550;27;45330;-71
2022/06/19 01:42:54;;;;;;;;;16.75;12.25;;;;;20.51;56.89;99914.63;5075687;28;46095;-69
2022/06/19 01:45:21;;;;;;;;;15.00;15.00;;;;;20.44;56.72;99916.19;5075952;27;45410;-69
2022/06/19 01:47:46;;;;;;;;;14.50;12.00;;;;;20.29;57.51;99919.31;5076254;27;45331;-68
2022/06/19 01:50:16;;;;;;;;;18.50;15.75;;;;;20.15;57.42;99935.75;5071305;28;45636;-68
2022/06/19 01:52:41;;;;;;;;;17.25;13.50;;;;;20.04;56.82;99919.84;5056066;28;45558;-69
2022/06/19 01:55:16;;;;;;;;;12.75;12.00;;;;;19.89;57.33;99914.88;5055624;28;45401;-68
2022/06/19 01:57:55;;;;;;;;;15.50;14.50;;;;;19.70;58.08;99897.03;5063446;28;45456;-68
2022/06/19 02:00:27;;;;;;;;;15.00;13.25;;;;;19.58;57.55;99874.09;5074579;28;45295;-68
2022/06/19 02:03:16;;;;;;;;;15.75;12.25;;;;;19.45;57.93;99880.53;5075142;27;45516;-70
2022/06/19 02:05:42;;;;;;;;;18.00;14.00;;;;;19.36;58.13;99871.53;5076113;27;45349;-67
2022/06/19 02:08:08;;;;;;;;;19.50;15.75;;;;;19.32;58.79;99885.25;5075978;27;45426;-68
2022/06/19 02:10:40;;;;;;;;;18.75;15.25;;;;;19.27;58.07;99904.34;5075910;28;45593;-67
2022/06/19 02:13:06;;;;;;;;;20.50;15.25;;;;;19.21;58.26;99921.72;5075212;27;46114;-67
2022/06/19 02:15:31;;;;;;;;;17.50;12.00;;;;;19.32;59.11;99958.13;5074314;28;46154;-68
2022/06/19 02:18:00;;;;;;;;;12.50;11.00;;;;;19.29;58.10;99966.38;5075818;27;45463;-68
2022/06/19 02:20:26;;;;;;;;;10.75;10.75;;;;;19.25;58.67;99988.97;5091562;27;45341;-68
2022/06/19 02:22:51;;;;;;;;;13.25;10.25;;;;;19.20;58.48;99991.19;5073936;28;47392;-68
2022/06/19 02:25:17;;;;;;;;;17.75;13.25;;;;;19.22;57.96;99984.72;5075423;28;45292;-68
2022/06/19 02:27:42;;;;;;;;;12.25;11.25;;;;;19.34;58.05;99973.97;5075346;28;45283;-68
2022/06/19 02:30:11;;;;;;;;;14.50;11.25;;;;;19.44;57.82;99974.03;5075442;28;45490;-68
2022/06/19 02:32:42;;;;;;;;;12.25;10.75;;;;;19.46;57.95;99978.22;5075185;27;45556;-69
2022/06/19 02:35:14;;;;;;;;;19.00;12.25;;;;;19.47;58.25;99998.59;5075234;27;45354;-68
2022/06/19 02:37:45;;;;;;;;;12.25;10.75;;;;;19.42;58.06;99999.00;5073860;28;45345;-67
2022/06/19 02:40:31;;;;;;;;;14.75;14.25;;;;;19.47;58.74;100005.75;5075444;27;45334;-67
2022/06/19 02:42:56;;;;;;;;;15.75;13.25;;;;;19.40;58.30;99990.28;5075403;28;46116;-67
2022/06/19 02:45:26;;;;;;;;;12.25;10.25;;;;;19.48;58.37;99986.94;5074571;28;45543;-67
2022/06/19 02:47:53;;;;;;;;;12.75;11.25;;;;;19.45;58.51;99986.38;5075262;27;45319;-69
2022/06/19 02:50:28;;;;;;;;;14.50;12.00;;;;;19.44;58.75;100014.84;5069751;28;45482;-68
2022/06/19 02:52:54;;;;;;;;;14.25;12.50;;;;;19.36;58.16;100049.34;5070162;28;47347;-68
2022/06/19 02:55:20;;;;;;;;;17.50;11.25;;;;;19.34;58.43;100245.97;5054596;28;45400;-70
2022/06/19 02:57:46;;;;;;;;;10.25;10.25;;;;;19.32;58.83;100239.91;5061963;28;45435;-68
2022/06/19 03:00:30;;;;;;;;;15.50;13.25;;;;;19.29;58.18;100098.84;5075337;27;45463;-70
2022/06/19 03:03:23;;;;;;;;;13.00;13.00;;;;;19.25;58.16;100195.09;5075097;28;47185;-66
2022/06/19 03:05:49;;;;;;;;;14.75;14.50;;;;;19.18;59.02;100196.56;5075020;28;45375;-69
2022/06/19 03:08:14;;;;;;;;;15.00;11.00;;;;;19.09;58.85;100214.19;5075447;28;45327;-66
2022/06/19 03:10:39;;;;;;;;;15.75;11.25;;;;;19.05;58.74;100172.75;5074833;28;45722;-67
2022/06/19 03:13:05;;;;;;;;;12.50;11.00;;;;;19.08;59.00;100209.81;5075134;27;46331;-70
2022/06/19 03:15:30;;;;;;;;;12.50;11.50;;;;;19.03;60.07;100134.72;5075344;27;45409;-69
2022/06/19 03:17:56;;;;;;;;;13.50;13.25;;;;;18.99;58.85;100197.22;5075608;28;45473;-67
2022/06/19 03:20:24;;;;;;;;;16.50;10.25;;;;;18.95;58.90;100137.13;5075286;28;45594;-71
2022/06/19 03:22:50;;;;;;;;;20.00;13.25;;;;;18.93;59.21;100107.97;5074621;27;47114;-71
2022/06/19 03:25:16;;;;;;;;;16.50;14.50;;;;;19.00;59.26;100116.31;5074970;27;45337;-69
2022/06/19 03:27:41;;;;;;;;;13.25;13.25;;;;;19.00;58.81;100150.94;5074487;27;45321;-67
2022/06/19 03:30:08;;;;;;;;;12.75;10.75;;;;;19.02;58.84;100196.16;5074674;27;45154;-68
2022/06/19 03:32:33;;;;;;;;;14.25;14.25;;;;;19.01;59.15;100141.97;5074829;27;45405;-67
2022/06/19 03:34:58;;;;;;;;;17.00;12.75;;;;;18.94;59.35;100132.78;5074608;28;45454;-67
2022/06/19 03:37:24;;;;;;;;;10.75;10.75;;;;;18.82;59.40;100129.31;5074483;28;45410;-68
2022/06/19 03:39:50;;;;;;;;;18.50;12.25;;;;;18.75;59.15;100126.31;5074459;27;45341;-69
2022/06/19 03:42:16;;;;;;;;;21.25;16.25;;;;;18.72;59.46;100125.72;5074421;27;45500;-68
2022/06/19 03:44:41;;;;;;;;;18.25;15.25;;;;;18.58;60.07;100130.38;5074461;28;45419;-68
2022/06/19 03:47:07;;;;;;;;;14.50;13.50;;;;;18.58;59.40;100158.78;5074497;28;45451;-68
2022/06/19 03:49:33;;;;;;;;;18.00;16.50;;;;;18.51;59.64;100174.41;5075356;28;45553;-67
2022/06/19 03:51:58;;;;;;;;;15.00;13.00;;;;;18.50;59.88;100181.56;5078376;27;45465;-68
2022/06/19 03:54:24;;;;;;;;;16.00;13.00;;;;;18.50;60.17;100194.03;5078059;28;45265;-68
2022/06/19 03:56:50;;;;;;;;;14.50;14.25;;;;;18.42;60.02;100152.06;5076533;28;45574;-67
2022/06/19 03:59:15;;;;;;;;;25.75;18.00;;;;;18.41;59.80;100115.75;5079113;27;45406;-68
2022/06/19 04:01:41;;;;;;;;;14.50;14.50;;;;;18.44;59.68;100117.28;5078186;27;46282;-67
2022/06/19 04:04:07;;;;;;;;;16.75;15.25;;;;;18.44;59.54;100147.44;5077960;28;45273;-68
2022/06/19 04:06:35;;;;;;;;;13.75;12.25;;;;;18.45;59.87;100172.25;5078281;28;45242;-69
2022/06/19 04:09:03;;;;;;;;;20.75;15.25;;;;;18.43;59.80;100206.13;5077600;27;45453;-68
2022/06/19 04:11:29;;;;;;;;;16.50;16.50;;;;;18.44;59.59;100280.59;5077411;27;48084;-67
2022/06/19 04:13:54;;;;;;;;;16.50;16.00;;;;;18.50;60.14;100305.88;5077779;27;45402;-67
2022/06/19 04:16:23;;;;;;;;;16.50;14.25;;;;;18.61;59.36;100281.06;5078112;28;45348;-67
2022/06/19 04:18:51;;;;;;;;;15.50;13.00;;;;;18.66;60.46;100117.25;5077980;27;45484;-67
2022/06/19 04:21:20;;;;;;;;;21.50;21.00;;;;;18.38;79.57;100006.81;5077703;27;46589;-70
2022/06/19 04:23:45;;;;;;;;;17.75;17.00;;;;;17.76;86.69;100028.56;5076983;27;45488;-66
2022/06/19 04:26:13;;;;;;;;;21.00;21.00;;;;;17.30;88.23;100048.97;5077559;27;45265;-65
2022/06/19 04:28:40;;;;;;;;;25.25;19.75;;;;;16.89;90.27;100032.53;5077552;27;45504;-66
2022/06/19 04:31:06;;;;;;;;;16.25;16.25;;;;;16.62;87.55;100051.38;5077665;27;46214;-66
2022/06/19 04:33:35;;;;;;;;;20.25;16.75;;;;;16.41;87.13;100059.09;5092757;27;45390;-67
2022/06/19 04:36:01;;;;;;;;;19.75;15.50;;;;;16.33;87.40;100060.50;5077603;27;45306;-67
2022/06/19 04:38:28;;;;;;;;;20.50;18.50;;;;;16.34;88.35;100064.03;5077610;28;45591;-67
2022/06/19 04:40:54;;;;;;;;;22.50;18.50;;;;;16.32;87.90;100061.47;5077171;27;45292;-67
2022/06/19 04:43:19;;;;;;;;;19.75;18.75;;;;;16.35;86.92;100086.94;5077373;28;45305;-67
2022/06/19 04:45:45;;;;;;;;;16.75;15.00;;;;;16.43;84.43;100108.47;5076916;28;45423;-67
2022/06/19 04:48:10;;;;;;;;;17.00;12.25;;;;;16.43;82.00;100081.94;5076147;27;45508;-65
2022/06/19 04:50:35;;;;;;;;;18.00;15.50;;;;;16.50;81.90;100083.19;5076683;28;46246;-66
2022/06/19 04:53:01;;;;;;;;;18.50;16.25;;;;;16.55;78.16;100108.53;5076985;27;45272;-66
2022/06/19 04:55:26;;;;;;;;;17.25;16.00;;;;;16.62;77.72;100062.84;5076709;27;45429;-65
2022/06/19 04:57:52;;;;;;;;;19.25;14.00;;;;;16.65;78.50;100027.25;5077159;27;45627;-65
2022/06/19 05:00:19;;;;;;;;;14.75;13.00;;;;;16.70;76.72;100058.78;5076867;27;45487;-65
2022/06/19 05:02:48;;;;;;;;;15.00;14.00;;;;;16.65;75.22;100029.91;5076784;27;45432;-65
2022/06/19 05:05:17;;;;;;;;;16.25;11.25;;;;;16.93;75.06;100051.72;5077086;27;45311;-66
2022/06/19 05:07:42;;;;;;;;;14.00;10.00;;;;;17.05;74.54;100087.19;5077420;27;45512;-66
2022/06/19 05:10:09;;;;;;;;;12.00;10.25;;;;;17.16;72.63;100116.44;5076238;28;45507;-66
2022/06/19 05:12:35;;;;;;;;;11.75;11.75;;;;;17.30;71.65;100104.78;5077404;27;45430;-68
2022/06/19 05:15:01;;;;;;;;;14.50;11.00;;;;;17.33;71.19;100138.25;5074818;28;45415;-66
2022/06/19 05:17:26;;;;;;;;;10.25;8.25;;;;;17.43;70.32;100165.81;5077203;28;45553;-67
2022/06/19 05:19:52;;;;;;;;;15.75;11.00;;;;;17.51;70.54;100128.03;5077144;27;45264;-67
2022/06/19 05:22:18;;;;;;;;;12.75;10.25;;;;;17.51;70.39;100019.00;5076593;27;45399;-68
2022/06/19 05:24:43;;;;;;;;;10.00;9.00;;;;;17.47;71.30;99990.97;5076176;27;45460;-66
2022/06/19 05:27:09;;;;;;;;;8.75;8.75;;;;;17.38;73.49;100004.03;5077425;27;45321;-67
2022/06/19 05:29:35;;;;;;;;;11.25;8.25;;;;;17.21;74.21;99983.22;5076020;27;46706;-65
2022/06/19 05:32:04;;;;;;;;;9.75;8.25;;;;;17.05;73.87;99904.72;5076720;27;45449;-66
2022/06/19 05:34:29;;;;;;;;;9.00;8.00;;;;;16.95;74.55;99850.56;5076270;27;45544;-66
2022/06/19 05:36:55;;;;;;;;;9.50;9.50;;;;;16.86;74.16;99893.78;5077236;28;45393;-65
2022/06/19 05:39:20;;;;;;;;;13.00;12.00;;;;;16.82;73.58;99964.03;5076422;28;45343;-67
2022/06/19 05:41:45;;;;;;;;;10.00;8.50;;;;;16.83;73.31;99960.41;5076746;27;45394;-65
2022/06/19 05:44:11;;;;;;;;;10.00;10.00;;;;;16.82;73.02;99994.13;5074507;28;49021;-65
2022/06/19 05:46:36;;;;;;;;;10.50;7.25;;;;;16.83;72.83;99992.28;5076801;27;45267;-64
2022/06/19 05:49:02;;;;;;;;;13.25;7.25;;;;;16.90;71.85;100012.09;5075283;28;50636;-66
2022/06/19 05:51:27;;;;;;;;;5.50;5.50;;;;;16.96;71.47;100037.38;5076086;27;45451;-65
2022/06/19 05:53:55;;;;;;;;;9.25;9.25;;;;;16.99;71.27;100048.66;5076012;28;45449;-66
2022/06/19 05:56:22;;;;;;;;;6.75;6.75;;;;;17.02;70.28;100032.47;5076034;28;45482;-65
2022/06/19 05:58:48;;;;;;;;;11.00;9.00;;;;;17.06;70.48;99991.44;5075897;28;46648;-66
2022/06/19 06:01:15;;;;;;;;;9.00;8.25;;;;;17.10;70.29;99954.81;5075843;28;45314;-65
2022/06/19 06:03:43;;;;;;;;;11.75;6.00;;;;;17.11;70.21;99929.94;5075857;27;45386;-65
2022/06/19 06:06:21;;;;;;;;;8.25;7.00;;;;;17.15;69.87;99904.81;5075668;27;45492;-67
2022/06/19 06:08:47;;;;;;;;;10.00;9.50;;;;;17.16;70.31;99868.47;5075013;27;46486;-67
2022/06/19 06:11:13;;;;;;;;;9.75;9.50;;;;;17.17;70.09;99873.66;5075723;27;45435;-67
2022/06/19 06:13:39;;;;;;;;;6.25;6.25;;;;;17.22;69.47;99889.25;5074775;27;45378;-66
2022/06/19 06:16:04;;;;;;;;;5.00;5.00;;;;;17.23;69.04;99859.06;5075635;28;45616;-64
2022/06/19 06:18:30;;;;;;;;;6.50;6.00;;;;;17.10;68.90;99845.88;5075479;27;46165;-65
2022/06/19 06:20:58;;;;;;;;;8.50;6.00;;;;;17.23;68.83;99891.78;5075713;27;45292;-66
2022/06/19 06:23:25;;;;;;;;;5.00;5.00;;;;;17.28;68.09;99968.50;5075809;27;45368;-66
2022/06/19 06:26:21;;;;;;;;;8.00;6.00;;;;;17.35;67.74;100028.19;5075262;27;45616;-65
2022/06/19 06:28:49;;;;;;;;;4.50;4.50;;;;;17.43;67.44;100042.69;5072868;28;47575;-66
2022/06/19 06:31:15;;;;;;;;;7.00;6.00;;;;;17.52;67.04;100061.44;5075521;27;45389;-66
2022/06/19 06:33:41;;;;;;;;;7.50;6.00;;;;;17.59;66.78;100096.38;5075059;27;45383;-65
2022/06/19 06:36:07;;;;;;;;;9.75;6.00;;;;;17.63;67.25;100104.97;5075490;28;45493;-66
2022/06/19 06:38:33;;;;;;;;;8.25;7.00;;;;;17.64;67.35;100070.25;5075146;27;45296;-67
2022/06/19 06:40:58;;;;;;;;;7.00;5.75;;;;;17.74;67.60;100098.81;5075734;28;45268;-65
2022/06/19 06:43:24;;;;;;;;;5.75;5.00;;;;;17.80;66.81;100095.66;5076369;27;45295;-69
2022/06/19 06:45:49;;;;;;;;;6.75;6.75;;;;;17.86;67.10;100070.41;5075505;27;45686;-68
2022/06/19 06:48:16;;;;;;;;;7.00;5.75;;;;;17.95;66.63;100046.53;5074925;28;45525;-66
2022/06/19 06:50:42;;;;;;;;;9.25;8.00;;;;;18.02;66.45;100062.06;5075132;27;45409;-68
2022/06/19 06:53:09;;;;;;;;;9.00;7.00;;;;;18.04;65.98;100076.94;5074724;27;46207;-69
2022/06/19 06:55:42;;;;;;;;;8.00;8.00;;;;;18.04;66.29;100052.16;5075210;27;45406;-69
2022/06/19 06:58:08;;;;;;;;;16.00;8.25;;;;;17.97;71.71;99937.34;5090339;27;47448;-69
2022/06/19 07:00:33;;;;;;;;;10.50;6.25;;;;;17.82;71.35;99875.59;5074787;28;45456;-69
2022/06/19 07:02:59;;;;;;;;;8.50;6.25;;;;;17.64;70.05;99885.94;5075346;27;45358;-68
2022/06/19 07:05:26;;;;;;;;;10.50;7.50;;;;;17.56;70.68;99886.53;5075906;27;45496;-69
2022/06/19 07:07:51;;;;;;;;;10.00;8.50;;;;;17.59;70.15;99920.03;5075084;28;46238;-68
2022/06/19 07:10:17;;;;;;;;;6.25;6.25;;;;;17.61;69.25;99932.22;5074306;28;45235;-71
2022/06/19 07:12:42;;;;;;;;;8.00;8.00;;;;;17.71;69.18;99968.72;5075010;27;45440;-68
2022/06/19 07:15:10;;;;;;;;;12.00;9.75;;;;;17.79;68.33;99998.19;5075357;28;45173;-70
2022/06/19 07:17:36;;;;;;;;;7.50;7.25;;;;;17.88;68.66;100007.28;5074502;27;46655;-69
2022/06/19 07:20:02;;;;;;;;;7.75;7.75;;;;;17.91;68.06;100030.97;5074967;27;45369;-70
2022/06/19 07:22:28;;;;;;;;;6.00;6.00;;;;;17.84;67.90;100069.69;5075034;27;45399;-69
2022/06/19 07:24:53;;;;;;;;;8.75;6.00;;;;;17.65;68.70;100089.75;5077009;27;45656;-69
2022/06/19 07:27:19;;;;;;;;;6.00;5.00;;;;;17.61;68.36;100141.47;5076605;28;46172;-70
2022/06/19 07:29:45;;;;;;;;;6.25;4.00;;;;;17.53;67.85;100115.47;5078473;28;45518;-68
2022/06/19 07:32:12;;;;;;;;;5.00;5.00;;;;;17.50;67.50;100116.56;5078540;27;45391;-68
2022/06/19 07:34:38;;;;;;;;;5.00;5.00;;;;;17.54;67.75;100143.75;5078748;28;45363;-67
2022/06/19 07:37:05;;;;;;;;;5.50;5.50;;;;;17.62;67.82;100202.50;5077624;27;45614;-67
2022/06/19 07:39:31;;;;;;;;;6.50;4.75;;;;;17.64;66.62;100288.34;5078209;28;45977;-68
2022/06/19 07:41:57;;;;;;;;;6.00;4.50;;;;;17.41;67.56;100254.66;5078866;27;45322;-73
2022/06/19 07:44:22;;;;;;;;;8.50;5.75;;;;;17.31;67.94;100214.59;5078457;27;45659;-80
2022/06/19 07:52:16;;;;;;;;;7.25;7.25;;;;;17.61;67.16;100203.47;5077993;28;45598;-76
2022/06/19 07:54:41;;;;;;;;;7.25;6.50;;;;;17.71;66.40;100186.81;5078273;28;45615;-71
2022/06/19 07:57:06;;;;;;;;;10.25;8.00;;;;;17.89;66.79;100190.72;5077615;27;46303;-69
2022/06/19 07:59:32;;;;;;;;;9.75;8.25;;;;;18.19;65.73;100188.47;5077581;27;45278;-72
2022/06/19 08:01:57;;;;;;;;;10.50;7.50;;;;;18.36;65.02;100209.28;5079159;27;45425;-71
2022/06/19 08:04:23;;;;;;;;;10.00;6.00;;;;;18.50;63.80;100297.88;5081826;28;45380;-72
2022/06/19 08:06:49;;;;;;;;;7.00;7.00;;;;;18.45;63.43;100367.50;5086944;28;45929;-72
2022/06/19 08:09:15;;;;;;;;;8.00;7.00;;;;;18.31;63.51;100311.81;5079927;28;45527;-73
2022/06/19 08:11:40;;;;;;;;;9.00;7.25;;;;;18.32;64.01;100244.28;5078118;27;45389;-73
2022/06/19 08:14:05;;;;;;;;;10.25;9.00;;;;;18.40;64.42;100257.84;5078092;27;45636;-73
2022/06/19 08:16:31;;;;;;;;;14.50;11.75;;;;;18.50;64.06;100229.50;5076456;28;47661;-73
2022/06/19 08:18:56;;;;;;;;;9.25;7.50;;;;;18.69;63.15;100193.41;5077498;28;45276;-74
2022/06/19 08:21:21;;;;;;;;;7.75;7.50;;;;;18.80;62.69;100165.91;5077526;27;45634;-73
2022/06/19 08:23:47;;;;;;;;;7.75;7.75;;;;;18.90;62.69;100168.66;5077710;28;45528;-73
2022/06/19 08:26:12;;;;;;;;;12.25;9.00;;;;;19.14;62.45;100170.31;5075640;28;55982;-74
2022/06/19 08:28:42;;;;;;;;;8.75;7.50;;;;;19.18;61.54;100159.25;5077368;28;45390;-74
2022/06/19 08:31:07;;;;;;;;;9.25;9.25;;;;;19.26;61.32;100139.97;5077276;28;45286;-73
2022/06/19 08:33:33;;;;;;;;;12.00;10.50;;;;;19.23;60.78;100108.22;5077918;27;45588;-73
2022/06/19 08:36:03;;;;;;;;;9.75;9.75;;;;;19.32;60.41;100136.78;5077333;28;46265;-73
2022/06/19 08:38:33;;;;;;;;;11.75;8.25;;;;;19.23;61.08;100126.88;5077881;27;45285;-74
2022/06/19 08:41:15;;;;;;;;;8.50;8.50;;;;;19.08;60.92;100081.84;5075993;28;45812;-73
2022/06/19 08:44:08;;;;;;;;;12.00;9.50;;;;;19.18;61.62;100075.78;5077384;28;45621;-73
2022/06/19 08:46:54;;;;;;;;;8.25;8.25;;;;;19.19;61.08;100062.31;5077207;27;45408;-74
2022/06/19 08:49:41;;;;;;;;;13.75;7.25;;;;;19.26;61.15;100052.81;5076706;28;45216;-73
2022/06/19 08:52:32;;;;;;;;;14.75;10.50;;;;;19.31;60.84;100033.75;5077200;27;45322;-73
2022/06/19 08:55:14;;;;;;;;;11.00;10.00;;;;;19.43;61.08;100029.16;5077483;28;45300;-75
2022/06/19 08:57:50;;;;;;;;;16.00;10.50;;;;;19.57;60.27;100070.66;5076847;28;46611;-73
2022/06/19 09:00:22;;;;;;;;;15.00;12.00;;;;;19.61;59.64;100064.09;5077166;27;45369;-73
2022/06/19 09:03:17;;;;;;;;;12.75;11.00;;;;;19.70;59.54;100052.59;5076939;27;45288;-74
2022/06/19 09:05:53;;;;;;;;;9.75;9.75;;;;;19.83;59.67;100063.06;5077002;27;45337;-73
2022/06/19 09:08:37;;;;;;;;;11.25;10.25;;;;;19.84;59.79;100083.44;5076713;27;46243;-73
2022/06/19 09:11:21;;;;;;;;;14.50;11.00;;;;;20.10;59.24;100074.97;5076883;28;45436;-73
2022/06/19 09:14:02;;;;;;;;;12.25;9.50;;;;;20.50;58.67;100105.28;5076571;28;45366;-73
2022/06/19 09:16:39;;;;;;;;;9.00;9.00;;;;;20.79;57.98;100144.59;5076850;27;45386;-73
2022/06/19 09:19:10;;;;;;;;;18.00;13.25;;;;;20.94;57.09;100168.25;5075151;28;45309;-74
2022/06/19 09:21:51;;;;;;;;;18.25;15.75;;;;;21.14;57.54;100179.81;5075469;28;45395;-73
2022/06/19 09:24:32;;;;;;;;;13.25;12.50;;;;;21.31;56.34;100194.31;5076745;27;45382;-73
2022/06/19 09:27:00;;;;;;;;;14.00;11.00;;;;;21.35;56.45;100195.72;5077197;27;45394;-72
2022/06/19 09:29:41;;;;;;;;;15.50;13.75;;;;;21.41;56.18;100192.47;5076565;28;46457;-73
2022/06/19 09:32:07;;;;;;;;;11.75;11.75;;;;;21.65;55.75;100193.88;5076217;27;45453;-73
2022/06/19 09:34:57;;;;;;;;;12.50;11.00;;;;;21.79;54.96;100189.06;5076434;28;45636;-73
2022/06/19 09:37:25;;;;;;;;;14.50;14.00;;;;;21.97;55.47;100199.88;5076732;27;45390;-74
2022/06/19 09:40:04;;;;;;;;;12.75;11.75;;;;;22.27;54.08;100214.00;5076232;28;46696;-73
2022/06/19 09:42:39;;;;;;;;;14.25;10.75;;;;;22.56;54.40;100211.25;5075042;28;45250;-73
2022/06/19 09:45:15;;;;;;;;;17.00;12.00;;;;;22.77;53.27;100212.81;5076447;28;45293;-74
2022/06/19 09:48:05;;;;;;;;;12.25;11.75;;;;;22.80;52.72;100212.50;5054762;28;45446;-73
2022/06/19 09:50:39;;;;;;;;;14.00;14.00;;;;;22.85;52.22;100206.72;5054304;28;46197;-72
2022/06/19 09:53:21;;;;;;;;;10.50;10.50;;;;;22.96;52.32;100211.00;5055972;28;45365;-72
2022/06/19 09:56:06;;;;;;;;;16.25;14.75;;;;;22.82;51.98;100207.84;5057459;28;45618;-74
2022/06/19 09:58:45;;;;;;;;;15.00;13.25;;;;;22.57;52.31;100217.44;5071815;27;45409;-70
2022/06/19 10:01:11;;;;;;;;;18.50;16.25;;;;;22.46;52.37;100205.09;5075751;27;46400;-68
2022/06/19 10:03:43;;;;;;;;;16.00;16.00;;;;;22.41;52.69;100216.19;5076007;27;45196;-68
2022/06/19 10:06:26;;;;;;;;;19.25;16.00;;;;;22.29;52.67;100209.34;5075841;27;45378;-68
2022/06/19 10:09:01;;;;;;;;;18.00;16.25;;;;;22.20;52.77;100197.66;5075041;28;45434;-65
2022/06/19 10:11:32;;;;;;;;;13.00;13.00;;;;;22.13;53.26;100196.56;5075368;27;46502;-67
2022/06/19 10:14:00;;;;;;;;;16.00;14.25;;;;;22.07;53.31;100189.97;5074758;27;45427;-68
2022/06/19 10:16:25;;;;;;;;;19.75;17.75;;;;;22.00;53.76;100203.09;5076025;28;45538;-67
2022/06/19 10:18:53;;;;;;;;;18.50;15.75;;;;;21.93;53.54;100193.13;5075996;28;45299;-68
2022/06/19 10:24:35;;;;;;;;;15.75;15.25;;;;;21.86;53.76;100192.84;5075533;28;45268;-61
2022/06/19 10:27:32;;;;;;;;;17.50;17.50;;;;;21.80;53.88;100177.38;5075566;28;45431;-64
2022/06/19 10:30:14;;;;;;;;;19.00;16.00;;;;;21.83;54.24;100161.00;5075759;27;45169;-62
2022/06/19 10:32:54;;;;;;;;;18.00;16.25;;;;;22.02;54.21;100168.16;5075680;27;46607;-60
2022/06/19 10:35:55;;;;;;;;;19.25;18.00;;;;;22.03;54.01;100162.63;5075468;28;45367;-61
2022/06/19 10:38:44;;;;;;;;;16.25;16.25;;;;;22.04;53.82;100147.44;5063501;28;45397;-67
2022/06/19 10:44:22;;;;;;;;;19.00;18.25;;;;;21.97;54.48;100157.88;5074937;28;45890;-66
2022/06/19 10:47:17;;;;;;;;;24.00;23.75;;;;;21.98;54.42;100156.03;5052346;28;45334;-68
2022/06/19 10:50:09;;;;;;;;;23.00;21.50;;;;;22.03;54.58;100159.97;5038087;28;45462;-72
2022/06/19 10:52:53;;;;;;;;;20.25;17.25;;;;;22.13;54.48;100161.75;5075446;27;45372;-70
2022/06/19 10:55:36;;;;;;;;;20.00;20.00;;;;;22.21;54.73;100167.22;5075587;28;47329;-77
2022/06/19 10:58:01;;;;;;;;;20.25;19.75;;;;;22.33;54.24;100162.50;5075431;27;45364;-70
2022/06/19 11:00:27;;;;;;;;;23.75;19.25;;;;;22.29;54.33;100163.81;5074854;28;45336;-70
2022/06/19 11:06:05;;;;;;;;;20.75;20.75;;;;;22.43;53.99;100170.53;5075651;28;45716;-72
2022/06/19 11:08:35;;;;;;;;;18.25;18.25;;;;;22.48;54.18;100160.22;5108050;27;45671;-75
2022/06/19 11:11:03;;;;;;;;;20.00;18.75;;;;;22.49;54.10;100164.59;5074755;27;45426;-70
2022/06/19 11:14:00;;;;;;;;;17.25;17.25;;;;;22.37;54.22;100145.16;5073735;28;45523;-73
2022/06/19 11:16:27;;;;;;;;;25.00;22.75;;;;;22.38;54.61;100154.03;5069978;28;46330;-71
2022/06/19 11:18:59;;;;;;;;;24.00;23.00;;;;;22.50;54.39;100174.31;5074871;28;45477;-71
2022/06/19 11:21:32;;;;;;;;;24.25;24.25;;;;;22.44;54.33;100183.75;5075349;27;45245;-72
2022/06/19 11:24:01;;;;;;;;;21.00;21.00;;;;;22.44;54.41;100181.06;5073450;28;45203;-67
2022/06/19 11:26:42;;;;;;;;;26.00;24.25;;;;;22.39;54.47;100174.50;5074431;27;45421;-67
2022/06/19 11:29:13;;;;;;;;;27.50;24.50;;;;;22.41;54.96;100167.16;5075211;28;45173;-72
2022/06/19 11:32:04;;;;;;;;;19.00;17.75;;;;;22.54;54.81;100164.97;5075237;28;45381;-72
2022/06/19 11:34:45;;;;;;;;;22.00;20.50;;;;;22.61;54.67;100160.72;5064711;28;45678;-69
2022/06/19 11:37:22;;;;;;;;;19.25;18.75;;;;;22.67;53.84;100148.53;5074320;27;45529;-68
2022/06/19 11:40:08;;;;;;;;;26.00;23.00;;;;;22.68;53.66;100146.69;5073010;28;45425;-70
2022/06/19 11:42:45;;;;;;;;;20.50;20.50;;;;;22.74;53.41;100156.81;5074935;27;45225;-67
2022/06/19 11:45:13;;;;;;;;;21.75;19.50;;;;;22.86;53.37;100166.31;5074914;27;45614;-68
2022/06/19 11:47:57;;;;;;;;;19.50;18.75;;;;;22.81;53.09;100152.53;5074828;27;45575;-67